Time;durP1;ratioP1;P1;durP2;ratioP2;P2;SDS_P1;SDS_P2;PMS_P1;PMS_P2;Temp;Humidity;BMP_temperature;BMP_pressure;BME280_temperature;BME280_humidity;BME280_pressure;Samples;Min_cycle;Max_cycle;Signal;HPM_P1;HPM_P2
2023/09/11 00:01:35;;;;;;;18.15;10.30;;;;;;;22.81;90.06;101272.72;5033006;28;20584;-80
2023/09/11 00:04:00;;;;;;;14.13;9.80;;;;;;;22.79;90.05;101261.31;5030685;28;20067;-78
2023/09/11 00:06:25;;;;;;;13.52;9.27;;;;;;;22.79;90.55;101266.66;5031216;28;20021;-77
2023/09/11 00:08:51;;;;;;;17.55;10.25;;;;;;;22.78;90.49;101270.38;5030643;28;20100;-80
2023/09/11 00:11:17;;;;;;;16.83;10.25;;;;;;;22.79;90.20;101266.66;5026630;28;20054;-78
2023/09/11 00:13:43;;;;;;;11.90;9.30;;;;;;;22.76;91.18;101267.03;5043375;28;20069;-80
2023/09/11 00:16:09;;;;;;;12.68;10.18;;;;;;;22.74;90.22;101264.53;5031612;28;20104;-77
2023/09/11 00:18:34;;;;;;;17.65;10.65;;;;;;;22.73;90.70;101262.03;5032772;28;20588;-78
2023/09/11 00:21:00;;;;;;;13.77;10.48;;;;;;;22.71;90.45;101259.53;5028691;28;20032;-77
2023/09/11 00:23:26;;;;;;;16.50;10.13;;;;;;;22.69;90.86;101244.66;5031602;28;20100;-77
2023/09/11 00:25:52;;;;;;;11.50;9.40;;;;;;;22.69;91.10;101258.06;5031289;28;20018;-77
2023/09/11 00:28:17;;;;;;;16.23;10.50;;;;;;;22.65;91.48;101254.91;5033937;28;20075;-77
2023/09/11 00:30:42;;;;;;;16.20;10.90;;;;;;;22.64;91.59;101255.09;5044091;28;20021;-78
2023/09/11 00:33:08;;;;;;;15.13;10.30;;;;;;;22.60;91.73;101257.31;5019250;28;20049;-80
2023/09/11 00:35:34;;;;;;;12.43;11.13;;;;;;;22.58;92.30;101255.81;5020862;28;20037;-77
2023/09/11 00:37:59;;;;;;;16.65;10.88;;;;;;;22.55;92.24;101248.97;5030718;28;20125;-77
2023/09/11 00:40:24;;;;;;;16.17;11.32;;;;;;;22.49;92.48;101250.53;5029710;28;20061;-81
2023/09/11 00:42:50;;;;;;;20.73;11.68;;;;;;;22.47;92.82;101247.22;5030681;28;20041;-78
2023/09/11 00:45:15;;;;;;;16.33;11.20;;;;;;;22.46;93.61;101244.72;5029926;28;20030;-78
2023/09/11 00:47:47;;;;;;;15.50;11.27;;;;;;;22.43;93.36;101245.06;5031986;28;20021;-82
2023/09/11 00:50:17;;;;;;;20.30;11.82;;;;;;;22.37;93.86;101246.59;5031373;28;20488;-81
2023/09/11 00:52:43;;;;;;;22.55;11.77;;;;;;;22.37;93.98;101251.13;5028418;28;20392;-78
2023/09/11 00:55:09;;;;;;;22.23;11.10;;;;;;;22.33;93.91;101247.97;5030749;28;20026;-82
2023/09/11 00:57:36;;;;;;;18.70;11.45;;;;;;;22.29;94.49;101249.34;5032013;28;20021;-78
2023/09/11 01:00:03;;;;;;;19.00;11.88;;;;;;;22.25;94.67;101236.50;5030190;28;20315;-78
2023/09/11 01:02:29;;;;;;;18.85;11.82;;;;;;;22.22;94.65;101251.09;5029187;28;20065;-77
2023/09/11 01:04:54;;;;;;;20.80;12.13;;;;;;;22.21;94.79;101244.06;5022981;28;20021;-78
2023/09/11 01:07:20;;;;;;;19.33;11.80;;;;;;;22.17;95.38;101250.81;5018520;28;20033;-81
2023/09/11 01:09:46;;;;;;;22.27;12.23;;;;;;;22.17;94.78;101248.13;5030064;28;20057;-78
2023/09/11 01:12:12;;;;;;;21.17;11.77;;;;;;;22.11;95.37;101238.94;5025102;28;20038;-78
2023/09/11 01:14:37;;;;;;;16.73;11.75;;;;;;;22.09;95.56;101242.81;5030359;28;20017;-78
2023/09/11 01:17:15;;;;;;;16.10;11.13;;;;;;;22.08;95.58;101247.34;5030585;28;20381;-81
2023/09/11 01:19:56;;;;;;;16.30;11.35;;;;;;;22.04;95.72;101243.38;5030207;28;20041;-78
2023/09/11 01:22:21;;;;;;;16.33;12.88;;;;;;;21.97;96.11;101242.34;5025395;28;20033;-78
2023/09/11 01:25:13;;;;;;;15.07;11.35;;;;;;;22.00;95.49;101243.84;5030393;28;20029;-77
2023/09/11 01:28:03;;;;;;;18.00;11.50;;;;;;;21.93;95.14;101242.91;5030108;28;20025;-80
2023/09/11 01:30:29;;;;;;;24.70;11.90;;;;;;;21.90;95.14;101239.56;5031931;28;20370;-81
2023/09/11 01:32:56;;;;;;;15.02;11.18;;;;;;;21.88;95.30;101236.22;5028788;28;20032;-81
2023/09/11 01:35:21;;;;;;;18.13;11.23;;;;;;;21.87;95.38;101245.28;5029258;28;20037;-80
2023/09/11 01:37:46;;;;;;;14.05;10.73;;;;;;;21.84;95.26;101237.59;5029794;28;20034;-78
2023/09/11 01:40:12;;;;;;;21.77;11.73;;;;;;;21.82;95.29;101241.47;5024331;28;20049;-78
2023/09/11 01:42:44;;;;;;;16.15;10.82;;;;;;;21.79;95.80;101237.28;5029025;28;20421;-78
2023/09/11 01:45:14;;;;;;;14.50;10.40;;;;;;;21.78;95.85;101234.78;5031329;28;20036;-78
2023/09/11 01:47:42;;;;;;;18.58;10.80;;;;;;;21.73;95.85;101242.53;5029424;28;20138;-81
2023/09/11 01:50:11;;;;;;;18.75;11.10;;;;;;;21.70;95.93;101235.69;5030719;28;20025;-79
2023/09/11 01:52:37;;;;;;;13.05;10.43;;;;;;;21.71;95.67;101231.16;5030988;28;20099;-81
2023/09/11 01:55:03;;;;;;;14.10;10.68;;;;;;;21.66;95.77;101231.69;5027784;28;20530;-78
2023/09/11 01:57:29;;;;;;;13.63;10.30;;;;;;;21.63;96.17;101232.03;5028592;28;20071;-78
2023/09/11 01:59:54;;;;;;;15.30;10.73;;;;;;;21.63;96.22;101232.03;5029160;28;20059;-77
2023/09/11 02:02:19;;;;;;;11.80;10.35;;;;;;;21.59;95.97;101225.34;5028898;28;20029;-81
2023/09/11 02:04:45;;;;;;;16.45;11.10;;;;;;;21.59;95.79;101225.34;5030441;28;20040;-81
2023/09/11 02:07:12;;;;;;;13.70;10.27;;;;;;;21.56;95.88;101225.69;5030244;28;20104;-78
2023/09/11 02:09:37;;;;;;;15.80;10.57;;;;;;;21.53;96.05;101215.34;5044073;28;20473;-78
2023/09/11 02:12:03;;;;;;;12.50;10.43;;;;;;;21.51;96.27;101233.44;5023822;28;20041;-78
2023/09/11 02:14:28;;;;;;;13.27;10.70;;;;;;;21.46;96.05;101220.56;5028392;28;20028;-81
2023/09/11 02:16:54;;;;;;;15.30;10.88;;;;;;;21.43;96.47;101214.72;5028634;28;20032;-78
2023/09/11 02:19:19;;;;;;;13.63;10.77;;;;;;;21.43;96.51;101220.09;5029863;28;20026;-78
2023/09/11 02:21:46;;;;;;;18.60;11.25;;;;;;;21.41;96.50;101222.94;5030708;28;20386;-80
2023/09/11 02:24:11;;;;;;;19.25;11.10;;;;;;;21.36;96.87;101219.13;5029359;28;20029;-78
2023/09/11 02:26:37;;;;;;;15.45;11.18;;;;;;;21.38;96.58;101215.25;5029590;28;20025;-79
2023/09/11 02:29:02;;;;;;;16.67;10.93;;;;;;;21.29;96.55;101213.63;5028345;28;20037;-77
2023/09/11 02:31:29;;;;;;;22.73;11.18;;;;;;;21.32;96.70;101213.28;5029407;28;20031;-77
2023/09/11 02:33:54;;;;;;;14.73;10.57;;;;;;;21.27;96.83;101205.78;5030120;28;20397;-78
2023/09/11 02:36:20;;;;;;;14.52;10.07;;;;;;;21.29;97.28;101210.13;5030023;28;20022;-81
2023/09/11 02:38:45;;;;;;;16.48;11.10;;;;;;;21.23;97.05;101215.16;5028245;28;20068;-81
2023/09/11 02:41:10;;;;;;;19.08;10.98;;;;;;;21.23;96.97;101215.16;5030576;28;20036;-78
2023/09/11 02:43:36;;;;;;;15.43;11.00;;;;;;;21.20;97.74;101214.63;5028793;28;20065;-78
2023/09/11 02:46:02;;;;;;;14.60;10.60;;;;;;;21.18;97.69;101211.28;5027673;28;20037;-77
2023/09/11 02:48:27;;;;;;;13.57;10.35;;;;;;;21.17;97.29;101207.78;5021624;28;20061;-77
2023/09/11 02:50:52;;;;;;;14.00;10.85;;;;;;;21.13;98.10;101209.13;5039430;28;20033;-81
2023/09/11 02:53:19;;;;;;;17.70;10.55;;;;;;;21.08;98.37;101206.16;5029769;28;20108;-80
2023/09/11 02:55:45;;;;;;;14.38;10.95;;;;;;;21.08;98.29;101214.19;5028994;28;20043;-81
2023/09/11 02:58:10;;;;;;;18.20;11.10;;;;;;;21.02;98.16;101212.19;5028510;28;20040;-78
2023/09/11 03:00:37;;;;;;;15.20;10.45;;;;;;;21.02;98.49;101206.00;5028205;28;20525;-81
2023/09/11 03:03:03;;;;;;;14.60;10.68;;;;;;;20.98;98.87;101196.66;5029840;28;20033;-77
2023/09/11 03:05:32;;;;;;;14.13;11.15;;;;;;;20.96;98.53;101197.66;5025306;28;20029;-78
2023/09/11 03:08:01;;;;;;;13.13;10.43;;;;;;;20.88;99.76;101199.53;5028232;28;20397;-78
2023/09/11 03:10:30;;;;;;;14.85;10.95;;;;;;;20.90;99.45;101198.38;5044705;28;20025;-78
2023/09/11 03:12:56;;;;;;;13.35;11.18;;;;;;;20.86;99.41;101190.88;5027233;28;20731;-78
2023/09/11 03:15:27;;;;;;;17.33;11.27;;;;;;;20.83;99.66;101199.22;5027668;28;20013;-81
2023/09/11 03:17:52;;;;;;;15.50;11.27;;;;;;;20.84;99.46;101187.53;5029005;28;20034;-81
2023/09/11 03:20:17;;;;;;;17.13;10.88;;;;;;;20.80;99.62;101186.16;5043953;28;20044;-81
2023/09/11 03:22:43;;;;;;;17.20;11.60;;;;;;;20.76;99.60;101180.34;5029570;28;20548;-78
2023/09/11 03:25:08;;;;;;;13.98;10.80;;;;;;;20.73;99.92;101180.69;5025786;28;20022;-78
2023/09/11 03:27:34;;;;;;;19.73;11.70;;;;;;;20.75;99.62;101183.19;5029409;28;20204;-78
2023/09/11 03:30:00;;;;;;;14.32;10.88;;;;;;;20.69;100.00;101183.88;5044110;28;20029;-77
2023/09/11 03:32:26;;;;;;;12.15;10.85;;;;;;;20.68;100.00;101177.69;5029232;28;20021;-81
2023/09/11 03:34:55;;;;;;;13.20;10.70;;;;;;;20.65;100.00;101178.88;5027897;28;20065;-78
2023/09/11 03:37:21;;;;;;;16.85;10.75;;;;;;;20.61;100.00;101169.53;5028084;28;20477;-78
2023/09/11 03:39:46;;;;;;;16.35;11.55;;;;;;;20.61;100.00;101172.19;5025755;28;20026;-81
2023/09/11 03:42:12;;;;;;;13.70;10.85;;;;;;;20.60;100.00;101175.88;5028376;28;20371;-81
2023/09/11 03:44:39;;;;;;;20.15;11.40;;;;;;;20.58;100.00;101174.38;5028466;28;20559;-81
2023/09/11 03:47:04;;;;;;;15.27;10.60;;;;;;;20.57;100.00;101170.03;5025819;28;20041;-81
2023/09/11 03:49:30;;;;;;;14.85;10.73;;;;;;;20.56;100.00;101165.69;5029173;28;20056;-81
2023/09/11 03:51:56;;;;;;;15.82;10.95;;;;;;;20.49;100.00;101168.22;5027544;28;20072;-77
2023/09/11 03:54:22;;;;;;;15.73;10.98;;;;;;;20.52;100.00;101165.19;5028812;28;20281;-81
2023/09/11 03:56:48;;;;;;;16.42;10.70;;;;;;;20.45;100.00;101161.53;5017704;28;20030;-81
2023/09/11 03:59:17;;;;;;;13.73;10.85;;;;;;;20.42;100.00;101161.06;5032229;28;20131;-78
2023/09/11 04:01:42;;;;;;;11.27;10.15;;;;;;;20.41;100.00;101149.50;5047451;28;20096;-78
2023/09/11 04:04:07;;;;;;;18.63;11.15;;;;;;;20.42;100.00;101150.38;5033406;28;20029;-81
2023/09/11 04:06:33;;;;;;;14.77;10.93;;;;;;;20.40;100.00;101145.16;5032609;28;20017;-78
2023/09/11 04:08:59;;;;;;;13.10;11.25;;;;;;;20.34;100.00;101137.78;5031959;28;20033;-78
2023/09/11 04:11:24;;;;;;;13.80;10.95;;;;;;;20.34;100.00;101137.78;5029966;28;20029;-78
2023/09/11 04:13:49;;;;;;;18.27;11.50;;;;;;;20.31;100.00;101138.13;5028767;28;20029;-78
2023/09/11 04:16:15;;;;;;;12.82;10.70;;;;;;;20.31;100.00;101140.81;5031542;28;20032;-81
2023/09/11 04:18:43;;;;;;;16.15;11.20;;;;;;;20.26;100.00;101138.63;5032136;28;20025;-81
2023/09/11 04:21:09;;;;;;;11.90;10.43;;;;;;;20.26;100.00;101138.63;5033987;28;20108;-77
2023/09/11 04:23:35;;;;;;;15.18;10.48;;;;;;;20.26;100.00;101132.47;5034262;28;20057;-77
2023/09/11 04:26:01;;;;;;;11.40;10.00;;;;;;;20.23;100.00;101125.63;5033329;28;20018;-78
2023/09/11 04:28:27;;;;;;;11.88;9.88;;;;;;;20.22;100.00;101125.78;5029199;28;20052;-81
2023/09/11 04:30:52;;;;;;;12.77;10.50;;;;;;;20.18;100.00;101121.78;5014103;28;20068;-81
2023/09/11 04:33:18;;;;;;;17.08;11.40;;;;;;;20.18;100.00;101132.47;5012782;28;20528;-77
2023/09/11 04:35:43;;;;;;;16.98;10.82;;;;;;;20.15;100.00;101128.31;5030538;28;20037;-82
2023/09/11 04:38:08;;;;;;;16.58;11.30;;;;;;;20.17;100.00;101125.47;5031726;28;20552;-81
2023/09/11 04:40:34;;;;;;;17.77;10.73;;;;;;;20.13;100.00;101129.47;5032721;28;20029;-78
2023/09/11 04:43:00;;;;;;;16.15;10.80;;;;;;;20.12;100.00;101136.66;5032436;28;20041;-77
2023/09/11 04:45:25;;;;;;;13.82;10.65;;;;;;;20.09;100.00;101134.34;5025118;28;20034;-82
2023/09/11 04:47:51;;;;;;;13.50;10.57;;;;;;;20.09;100.00;101133.50;5011981;28;20026;-78
2023/09/11 04:50:17;;;;;;;16.95;11.02;;;;;;;20.05;100.00;101134.84;5011660;28;20502;-80
2023/09/11 04:52:42;;;;;;;15.48;10.57;;;;;;;20.00;100.00;101135.31;5012686;28;20410;-77
2023/09/11 04:55:08;;;;;;;17.50;10.88;;;;;;;20.02;100.00;101139.50;5026591;28;20080;-81
2023/09/11 04:57:34;;;;;;;15.18;10.27;;;;;;;19.99;100.00;101139.81;5030885;28;20144;-77
2023/09/11 05:00:10;;;;;;;13.38;10.65;;;;;;;19.98;100.00;101143.50;5032419;28;20021;-77
2023/09/11 05:02:36;;;;;;;17.42;11.55;;;;;;;19.97;100.00;101135.66;5025486;28;20056;-80
2023/09/11 05:05:03;;;;;;;13.63;11.00;;;;;;;19.96;100.00;101140.16;5024582;28;20029;-78
2023/09/11 05:07:29;;;;;;;17.90;10.70;;;;;;;19.93;100.00;101145.84;5030103;28;20523;-81
2023/09/11 05:09:55;;;;;;;15.38;10.80;;;;;;;19.92;100.00;101143.34;5031387;28;20056;-77
2023/09/11 05:12:20;;;;;;;17.48;11.50;;;;;;;19.94;100.00;101142.16;5029302;28;20060;-81
2023/09/11 05:14:46;;;;;;;22.30;11.40;;;;;;;19.89;100.00;101149.00;5025886;28;20025;-78
2023/09/11 05:17:11;;;;;;;17.60;10.73;;;;;;;19.84;100.00;101146.84;5034102;28;20121;-77
2023/09/11 05:19:36;;;;;;;15.50;10.93;;;;;;;19.85;100.00;101145.84;5029455;28;20021;-77
2023/09/11 05:22:03;;;;;;;15.10;10.93;;;;;;;19.84;100.00;101148.69;5031514;28;20036;-78
2023/09/11 05:24:28;;;;;;;17.38;10.43;;;;;;;19.84;100.00;101146.84;5031878;28;20021;-81
2023/09/11 05:26:54;;;;;;;17.98;10.77;;;;;;;19.83;100.00;101150.53;5031355;28;20362;-82
2023/09/11 05:29:20;;;;;;;13.05;9.60;;;;;;;19.88;100.00;101156.19;5029789;28;20071;-77
2023/09/11 05:31:45;;;;;;;17.20;10.45;;;;;;;19.85;100.00;101153.84;5031794;28;20056;-81
2023/09/11 05:34:11;;;;;;;15.43;10.43;;;;;;;19.82;100.00;101153.34;5025103;28;20564;-78
2023/09/11 05:36:38;;;;;;;13.88;9.85;;;;;;;19.80;100.00;101153.53;5012216;28;20036;-77
2023/09/11 05:39:03;;;;;;;15.02;10.20;;;;;;;19.81;100.00;101152.53;5029235;28;20044;-77
2023/09/11 05:41:30;;;;;;;14.40;9.60;;;;;;;19.79;100.00;101164.38;5030649;28;20053;-81
2023/09/11 05:43:55;;;;;;;16.35;10.35;;;;;;;19.79;99.47;101159.88;5029757;28;20072;-77
2023/09/11 05:46:21;;;;;;;16.08;10.80;;;;;;;19.80;100.00;101156.19;5029182;28;20466;-81
2023/09/11 05:48:46;;;;;;;16.60;9.52;;;;;;;19.81;99.77;101159.69;5029478;28;20066;-81
2023/09/11 05:51:11;;;;;;;16.17;10.10;;;;;;;19.78;100.00;101162.69;5025206;28;20025;-78
2023/09/11 05:53:38;;;;;;;16.27;9.82;;;;;;;19.82;100.00;101164.88;5029978;28;20025;-78
2023/09/11 05:56:04;;;;;;;16.33;10.35;;;;;;;19.85;100.00;101172.56;5012132;28;20112;-78
2023/09/11 05:58:30;;;;;;;19.20;10.30;;;;;;;19.89;100.00;101167.72;5029426;28;20035;-80
2023/09/11 06:00:55;;;;;;;15.52;9.95;;;;;;;19.85;99.74;101164.53;5027587;28;20033;-81
2023/09/11 06:03:21;;;;;;;20.17;10.90;;;;;;;19.87;100.00;101173.22;5029566;28;20033;-78
2023/09/11 06:05:46;;;;;;;17.08;10.40;;;;;;;19.90;99.71;101170.22;5028669;28;20026;-81
2023/09/11 06:08:13;;;;;;;16.73;10.10;;;;;;;19.92;99.67;101178.06;5028282;28;20060;-78
2023/09/11 06:10:39;;;;;;;19.00;10.80;;;;;;;19.92;99.76;101178.91;5029550;28;20030;-77
2023/09/11 06:13:04;;;;;;;14.70;10.25;;;;;;;19.95;99.39;101181.22;5029421;28;20018;-81
2023/09/11 06:15:31;;;;;;;17.25;10.90;;;;;;;19.99;99.52;101179.06;5028511;28;20057;-77
2023/09/11 06:17:57;;;;;;;16.55;10.35;;;;;;;20.01;98.49;101175.25;5029750;28;20040;-80
2023/09/11 06:20:22;;;;;;;14.18;10.80;;;;;;;20.01;98.72;101174.38;5028988;28;20025;-78
2023/09/11 06:22:48;;;;;;;15.07;10.15;;;;;;;20.05;99.13;101185.59;5028921;28;20032;-78
2023/09/11 06:25:13;;;;;;;14.85;10.45;;;;;;;20.02;99.02;101181.44;5028715;28;20112;-81
2023/09/11 06:27:39;;;;;;;14.32;10.30;;;;;;;20.09;99.08;101170.91;5030872;28;20025;-81
2023/09/11 06:30:06;;;;;;;16.00;10.60;;;;;;;20.10;99.24;101172.56;5023078;28;20088;-77
2023/09/11 06:32:34;;;;;;;14.20;11.32;;;;;;;20.12;98.91;101190.09;5011440;28;20030;-78
2023/09/11 06:35:01;;;;;;;15.65;9.48;;;;;;;20.17;98.70;101184.25;5010390;28;20087;-78
2023/09/11 06:37:26;;;;;;;17.40;10.85;;;;;;;20.17;98.44;101189.59;5041927;28;20021;-82
2023/09/11 06:39:52;;;;;;;17.95;11.20;;;;;;;20.19;98.66;101183.09;5027965;28;20025;-81
2023/09/11 06:42:21;;;;;;;18.25;10.65;;;;;;;20.24;99.20;101185.25;5029297;28;20030;-77
2023/09/11 06:44:47;;;;;;;17.55;10.38;;;;;;;20.26;98.61;101188.59;5016489;28;20147;-77
2023/09/11 06:47:18;;;;;;;15.50;10.50;;;;;;;20.26;98.77;101184.06;5014899;28;20022;-76
2023/09/11 06:49:43;;;;;;;17.63;11.30;;;;;;;20.31;98.20;101196.94;5011932;28;20536;-81
2023/09/11 06:52:12;;;;;;;18.55;11.20;;;;;;;20.34;97.59;101196.59;5029151;28;20025;-76
2023/09/11 06:54:37;;;;;;;19.20;11.32;;;;;;;20.41;98.48;101194.09;5029985;28;20051;-81
2023/09/11 06:57:04;;;;;;;15.90;10.82;;;;;;;20.46;97.52;101197.97;5023906;28;20025;-77
2023/09/11 06:59:29;;;;;;;15.48;11.35;;;;;;;20.53;97.38;101196.28;5026049;28;20029;-77
2023/09/11 07:01:55;;;;;;;15.80;11.02;;;;;;;20.61;97.18;101193.59;5030344;28;20031;-76
2023/09/11 07:04:21;;;;;;;16.05;11.43;;;;;;;20.71;96.27;101188.03;5027317;28;20108;-78
2023/09/11 07:06:46;;;;;;;20.00;11.25;;;;;;;20.86;95.92;101182.84;5029316;28;20021;-78
2023/09/11 07:09:12;;;;;;;16.15;10.82;;;;;;;21.01;95.32;101185.63;5027826;28;20037;-77
2023/09/11 07:11:37;;;;;;;19.88;10.85;;;;;;;21.14;94.06;101181.38;5025258;28;20072;-74
2023/09/11 07:14:05;;;;;;;17.30;10.13;;;;;;;21.32;93.66;101180.34;5027620;28;20346;-75
2023/09/11 07:16:31;;;;;;;16.13;10.45;;;;;;;21.53;92.97;101172.50;5026455;28;20022;-77
2023/09/11 07:18:56;;;;;;;14.20;10.90;;;;;;;21.67;92.93;101174.44;5025925;28;20037;-77
2023/09/11 07:21:23;;;;;;;14.77;10.75;;;;;;;21.83;90.48;101168.94;5010613;28;20034;-77
2023/09/11 07:23:48;;;;;;;15.00;10.70;;;;;;;22.05;89.51;101171.84;5027123;28;20025;-76
2023/09/11 07:26:14;;;;;;;18.77;11.10;;;;;;;22.17;89.08;101175.75;5028375;28;20026;-75
2023/09/11 07:28:57;;;;;;;15.65;11.48;;;;;;;22.37;88.54;101179.56;5025181;28;20339;-74
2023/09/11 07:31:23;;;;;;;21.08;12.05;;;;;;;22.58;86.65;101168.13;5019576;28;20029;-74
2023/09/11 07:33:49;;;;;;;19.65;11.45;;;;;;;22.72;86.37;101179.88;5045955;28;20064;-75
2023/09/11 07:36:20;;;;;;;15.95;10.98;;;;;;;22.85;86.23;101179.28;5030722;28;20123;-75
2023/09/11 07:38:46;;;;;;;18.87;11.73;;;;;;;23.08;84.93;101183.50;5032070;28;20030;-75
2023/09/11 07:41:17;;;;;;;17.67;12.20;;;;;;;23.17;84.65;101186.09;5030833;28;20107;-79
2023/09/11 07:43:49;;;;;;;20.08;12.00;;;;;;;23.38;83.64;101191.53;5029724;28;20073;-74
2023/09/11 07:46:26;;;;;;;18.30;12.68;;;;;;;23.46;82.94;101186.03;5026974;28;20028;-77
2023/09/11 07:48:51;;;;;;;15.05;11.90;;;;;;;23.71;81.79;101187.41;5021561;28;20478;-73
2023/09/11 07:51:17;;;;;;;15.35;11.85;;;;;;;23.85;81.93;101192.88;5032364;28;20045;-74
2023/09/11 07:53:43;;;;;;;17.15;12.65;;;;;;;23.91;82.16;101187.56;5029267;28;20041;-74
2023/09/11 07:56:10;;;;;;;19.58;12.00;;;;;;;24.18;79.92;101193.19;5031470;28;20026;-74
2023/09/11 07:58:36;;;;;;;18.98;13.07;;;;;;;24.25;79.31;101194.91;5031273;28;20033;-74
2023/09/11 08:01:01;;;;;;;16.20;12.50;;;;;;;24.43;80.38;101199.88;5032709;28;20056;-73
2023/09/11 08:03:27;;;;;;;21.65;14.32;;;;;;;24.63;78.00;101203.50;5032317;28;20025;-74
2023/09/11 08:05:53;;;;;;;20.67;14.88;;;;;;;24.72;77.13;101206.88;5031722;28;20483;-74
2023/09/11 08:08:18;;;;;;;26.48;15.35;;;;;;;24.76;75.89;101200.06;5030313;28;20120;-74
2023/09/11 08:10:44;;;;;;;19.83;15.50;;;;;;;24.89;75.49;101205.53;5031865;28;20113;-73
2023/09/11 08:13:09;;;;;;;16.88;14.82;;;;;;;25.01;76.26;101215.78;5034159;28;20517;-74
2023/09/11 08:15:34;;;;;;;18.90;15.00;;;;;;;25.16;75.45;101216.47;5030508;28;20108;-73
2023/09/11 08:18:00;;;;;;;19.17;15.32;;;;;;;25.22;75.09;101213.00;5031734;28;20025;-74
2023/09/11 08:20:25;;;;;;;21.30;16.15;;;;;;;25.39;74.49;101222.38;5031612;28;20060;-73
2023/09/11 08:22:50;;;;;;;21.58;14.88;;;;;;;25.52;73.81;101213.50;5031445;28;20095;-73
2023/09/11 08:25:16;;;;;;;24.55;15.98;;;;;;;25.64;73.14;101211.91;5031244;28;20462;-74
2023/09/11 08:27:44;;;;;;;21.60;14.60;;;;;;;25.82;72.97;101214.88;5017655;28;20028;-74
2023/09/11 08:30:10;;;;;;;23.95;16.40;;;;;;;25.81;72.95;101210.50;5030760;28;20022;-74
2023/09/11 08:32:35;;;;;;;19.80;15.30;;;;;;;25.99;71.99;101200.97;5033015;28;20128;-74
2023/09/11 08:35:02;;;;;;;20.63;15.77;;;;;;;26.03;71.64;101207.66;5032239;28;20070;-73
2023/09/11 08:37:29;;;;;;;26.40;15.48;;;;;;;26.22;70.51;101209.53;5030537;28;20025;-75
2023/09/11 08:39:56;;;;;;;20.60;15.73;;;;;;;26.23;70.34;101195.81;5031541;28;20039;-74
2023/09/11 08:42:25;;;;;;;18.15;15.75;;;;;;;26.40;69.90;101200.81;5016535;28;20050;-75
2023/09/11 08:44:51;;;;;;;24.27;15.68;;;;;;;26.52;69.34;101205.38;5028570;28;20029;-74
2023/09/11 08:47:20;;;;;;;21.35;15.75;;;;;;;26.71;68.02;101214.50;5030408;28;20022;-74
2023/09/11 08:49:53;;;;;;;17.83;15.27;;;;;;;26.73;68.44;101206.19;5029126;28;20057;-74
2023/09/11 08:52:19;;;;;;;16.60;14.43;;;;;;;26.88;69.46;101204.09;5031097;28;20028;-74
2023/09/11 08:54:49;;;;;;;20.98;14.98;;;;;;;27.02;66.73;101202.19;5030031;28;20029;-74
2023/09/11 08:57:15;;;;;;;22.52;15.90;;;;;;;27.17;65.85;101202.75;5031075;28;20034;-74
2023/09/11 08:59:44;;;;;;;16.23;13.27;;;;;;;27.39;66.28;101203.28;5031469;28;20036;-73
2023/09/11 09:02:13;;;;;;;19.00;15.15;;;;;;;27.51;65.72;101211.53;5034564;28;20393;-75
2023/09/11 09:04:40;;;;;;;19.90;13.85;;;;;;;27.61;66.13;101209.19;5031218;28;20025;-73
2023/09/11 09:07:07;;;;;;;15.82;12.65;;;;;;;27.80;65.68;101202.06;5030871;28;20010;-73
2023/09/11 09:09:33;;;;;;;17.85;13.57;;;;;;;27.78;64.36;101200.41;5014839;28;20044;-74
2023/09/11 09:12:01;;;;;;;17.15;13.70;;;;;;;27.93;63.39;101197.38;5033616;28;20107;-73
2023/09/11 09:14:28;;;;;;;19.80;13.85;;;;;;;28.00;63.36;101198.16;5032400;28;20057;-74
2023/09/11 09:16:54;;;;;;;17.75;14.25;;;;;;;28.18;61.66;101193.88;5030239;28;20422;-73
2023/09/11 09:19:19;;;;;;;23.17;14.75;;;;;;;28.33;60.79;101192.50;5023624;28;20103;-73
2023/09/11 09:22:05;;;;;;;16.98;12.23;;;;;;;28.43;64.09;101194.72;5034939;28;20049;-74
2023/09/11 09:24:36;;;;;;;23.38;12.23;;;;;;;28.59;61.04;101202.25;5029790;28;20382;-73
2023/09/11 09:27:04;;;;;;;17.00;11.85;;;;;;;28.79;57.56;101202.03;5012949;28;20075;-73
2023/09/11 09:29:37;;;;;;;18.17;11.45;;;;;;;28.68;59.03;101198.19;5025786;28;20366;-74
2023/09/11 09:32:04;;;;;;;15.80;11.95;;;;;;;28.79;57.78;101201.22;5022647;28;20029;-73
2023/09/11 09:34:32;;;;;;;17.90;11.57;;;;;;;28.87;58.70;101209.09;5023293;28;20040;-73
2023/09/11 09:36:58;;;;;;;14.45;9.63;;;;;;;28.96;60.46;101207.75;5033004;28;20030;-73
2023/09/11 09:39:28;;;;;;;15.32;9.55;;;;;;;29.00;58.73;101203.53;5022630;28;20116;-72
2023/09/11 09:41:59;;;;;;;17.67;11.50;;;;;;;28.96;57.91;101197.72;5025649;28;20029;-74
2023/09/11 09:44:35;;;;;;;15.98;9.38;;;;;;;29.13;57.73;101207.94;5018100;28;20037;-73
2023/09/11 09:47:12;;;;;;;11.32;9.57;;;;;;;29.20;56.51;101201.38;5017803;28;20026;-73
2023/09/11 09:49:50;;;;;;;13.35;8.45;;;;;;;29.30;57.02;101200.88;5011560;28;20418;-73
2023/09/11 09:52:18;;;;;;;12.63;8.57;;;;;;;29.07;55.63;101195.31;5019451;28;20116;-76
2023/09/11 09:54:57;;;;;;;11.35;8.48;;;;;;;29.20;55.77;101205.97;5018154;28;20022;-76
2023/09/11 09:57:25;;;;;;;15.35;8.23;;;;;;;29.22;54.88;101196.59;5025884;28;20083;-76
2023/09/11 09:59:57;;;;;;;18.10;8.43;;;;;;;29.16;55.19;101197.47;5027230;28;20029;-78
2023/09/11 10:02:25;;;;;;;15.77;7.97;;;;;;;29.31;53.55;101199.81;5030411;28;20037;-76
2023/09/11 10:04:56;;;;;;;13.18;8.40;;;;;;;29.28;54.43;101198.38;5030648;28;20053;-76
2023/09/11 10:07:39;;;;;;;11.98;7.88;;;;;;;29.46;55.61;101202.13;5028731;28;20055;-76
2023/09/11 10:10:30;;;;;;;12.38;6.63;;;;;;;29.49;57.44;101196.25;5029111;28;20112;-76
2023/09/11 10:13:15;;;;;;;10.07;6.78;;;;;;;29.42;55.28;101201.75;5029810;28;20433;-76
2023/09/11 10:15:42;;;;;;;14.95;7.45;;;;;;;29.42;54.47;101207.16;5028590;28;20120;-75
2023/09/11 10:18:11;;;;;;;12.07;7.30;;;;;;;29.29;53.11;101197.31;5031109;28;20096;-76
2023/09/11 10:20:36;;;;;;;12.55;7.65;;;;;;;29.06;52.47;101197.19;5022049;28;20095;-76
2023/09/11 10:23:04;;;;;;;10.00;6.75;;;;;;;29.12;54.97;101195.44;5026521;28;20056;-76
2023/09/11 10:25:33;;;;;;;9.88;6.28;;;;;;;29.18;55.11;101199.97;5020273;28;20049;-76
2023/09/11 10:28:26;;;;;;;10.77;7.22;;;;;;;29.41;55.17;101199.25;5012470;28;20460;-76
2023/09/11 10:31:14;;;;;;;11.45;7.35;;;;;;;29.43;54.40;101183.59;5029075;28;20516;-76
2023/09/11 10:33:40;;;;;;;12.07;6.90;;;;;;;29.57;52.48;101193.22;5030163;28;20018;-76
2023/09/11 10:36:13;;;;;;;12.40;7.07;;;;;;;29.53;52.75;101192.03;5045602;28;20078;-76
2023/09/11 10:38:41;;;;;;;12.07;7.30;;;;;;;29.49;53.13;101183.53;5031503;28;20037;-76
2023/09/11 10:41:07;;;;;;;13.65;6.93;;;;;;;29.61;52.51;101188.97;5032973;28;20034;-76
2023/09/11 10:43:33;;;;;;;9.65;6.20;;;;;;;29.75;52.10;101184.22;5029624;28;20141;-76
2023/09/11 10:46:17;;;;;;;9.40;7.32;;;;;;;29.77;53.44;101182.91;5030172;28;20132;-77
2023/09/11 10:48:43;;;;;;;12.35;7.28;;;;;;;29.78;52.53;101181.84;5032017;28;20033;-77
2023/09/11 10:51:09;;;;;;;10.23;7.10;;;;;;;29.85;51.79;101179.84;5031367;28;20052;-78
2023/09/11 10:53:34;;;;;;;11.18;7.25;;;;;;;29.86;53.13;101169.84;5029776;28;20378;-78
2023/09/11 10:56:03;;;;;;;13.70;7.50;;;;;;;29.77;52.10;101180.19;5007633;28;20141;-78
2023/09/11 10:58:30;;;;;;;10.77;7.43;;;;;;;29.72;53.42;101179.25;5007931;28;20026;-75
2023/09/11 11:00:56;;;;;;;12.45;7.15;;;;;;;29.81;54.14;101177.84;5008113;28;20026;-78
2023/09/11 11:03:29;;;;;;;10.57;6.68;;;;;;;29.88;53.07;101179.38;5008686;28;20030;-76
2023/09/11 11:05:57;;;;;;;13.55;8.02;;;;;;;29.95;51.36;101173.84;5013412;28;20129;-76
2023/09/11 11:08:23;;;;;;;9.10;6.60;;;;;;;29.85;52.46;101171.72;5011805;28;20500;-77
2023/09/11 11:10:55;;;;;;;11.85;7.40;;;;;;;29.83;51.44;101171.13;5012736;28;20014;-77